Terminal Aerodrome Forecast
Issued by NWS

Home | Current Version | Previous Version | Text Only | Print | Product List | Glossary On
Versions: 1 2 3 4 5 6 7 8 9 10 11 12 13 14 15 16 17 18 19 20 21 22 23 24
000
FTUS42 KCAE 230500
TAFOGB
TAF
KOGB 230528Z 2306/2406 08005KT P6SM VCSH SCT040 BKN080
     FM230800 08004KT 4SM BR VCSH SCT008 OVC035
     FM231100 07008KT 4SM -RA BR OVC012
     FM231500 08010KT 2SM RA BR OVC006
     FM232100 13008KT 3SM -RA BR BKN008 OVC015=

USA.gov is the U.S. government's official web portal to all federal, state and local government web resources and services.